Time;durP1;ratioP1;P1;durP2;ratioP2;P2;SDS_P1;SDS_P2;PMS_P1;PMS_P2;Temp;Humidity;BMP_temperature;BMP_pressure;BME280_temperature;BME280_humidity;BME280_pressure;Samples;Min_cycle;Max_cycle;Signal;HPM_P1;HPM_P2
2024/01/12 00:01:51;;;;;;;85.38;36.88;;;-5.90;99.90;;;;;;5043146;28;20052;-72
2024/01/12 00:04:17;;;;;;;78.80;36.55;;;-6.00;99.90;;;;;;5043122;28;20071;-73
2024/01/12 00:06:42;;;;;;;89.55;36.53;;;-6.00;99.90;;;;;;5052383;28;20041;-73
2024/01/12 00:09:09;;;;;;;79.70;36.63;;;-6.00;99.90;;;;;;5045423;28;20040;-74
2024/01/12 00:11:35;;;;;;;77.07;35.20;;;-6.00;99.90;;;;;;5051021;28;20086;-73
2024/01/12 00:14:01;;;;;;;87.43;38.58;;;-6.00;99.90;;;;;;5044601;28;20040;-73
2024/01/12 00:16:26;;;;;;;87.25;39.15;;;-6.00;99.90;;;;;;5042465;28;20079;-73
2024/01/12 00:18:52;;;;;;;78.07;37.03;;;-6.00;99.90;;;;;;5049980;28;20037;-74
2024/01/12 00:21:18;;;;;;;82.90;37.13;;;-6.20;99.90;;;;;;5042880;28;20137;-75
2024/01/12 00:23:43;;;;;;;88.40;38.17;;;-6.20;99.90;;;;;;5049545;28;20485;-73
2024/01/12 00:26:09;;;;;;;87.93;39.55;;;-6.20;99.90;;;;;;5050887;28;20047;-74
2024/01/12 00:28:35;;;;;;;84.82;38.10;;;-6.20;99.90;;;;;;5050507;28;20021;-74
2024/01/12 00:31:00;;;;;;;86.05;40.03;;;-6.20;99.90;;;;;;5040512;28;20070;-73
2024/01/12 00:33:26;;;;;;;94.57;42.55;;;-6.20;99.90;;;;;;5041792;28;20282;-73
2024/01/12 00:35:51;;;;;;;91.57;40.38;;;-6.20;99.90;;;;;;5038002;28;20029;-74
2024/01/12 00:38:18;;;;;;;87.43;38.88;;;-6.20;99.90;;;;;;5049911;28;20029;-73
2024/01/12 00:40:44;;;;;;;84.22;38.40;;;-6.20;99.90;;;;;;5038306;28;20087;-74
2024/01/12 00:43:10;;;;;;;87.18;39.25;;;-6.20;99.90;;;;;;5035966;28;20498;-74
2024/01/12 00:45:36;;;;;;;81.28;38.08;;;-6.20;99.90;;;;;;5041326;28;20028;-74
2024/01/12 00:48:03;;;;;;;83.63;36.92;;;-6.20;99.90;;;;;;5043908;28;20025;-72
2024/01/12 00:50:29;;;;;;;85.20;37.08;;;-6.30;99.90;;;;;;5038820;28;20017;-72
2024/01/12 00:52:54;;;;;;;81.07;37.58;;;-6.30;99.90;;;;;;5040945;28;20478;-72
2024/01/12 00:55:20;;;;;;;78.63;35.67;;;-6.40;99.90;;;;;;5035044;28;20022;-72
2024/01/12 00:57:46;;;;;;;94.40;40.78;;;-6.50;99.90;;;;;;5037314;28;20022;-73
2024/01/12 01:00:12;;;;;;;91.55;40.42;;;-6.50;99.90;;;;;;5040248;28;20048;-73
2024/01/12 01:02:38;;;;;;;83.30;38.38;;;-6.50;99.90;;;;;;5029978;28;20032;-73
2024/01/12 01:05:04;;;;;;;87.55;38.80;;;-6.50;99.90;;;;;;5034034;28;20030;-75
2024/01/12 01:07:30;;;;;;;85.07;37.90;;;-6.50;99.90;;;;;;5034349;28;20055;-72
2024/01/12 01:09:56;;;;;;;87.88;37.17;;;-6.50;99.90;;;;;;5034086;28;20100;-72
2024/01/12 01:12:22;;;;;;;78.75;35.15;;;-6.50;99.90;;;;;;5032483;28;20026;-71
2024/01/12 01:14:48;;;;;;;87.07;38.80;;;-6.50;99.90;;;;;;5047236;28;20025;-72
2024/01/12 01:17:13;;;;;;;83.65;37.65;;;-6.50;99.90;;;;;;5046662;28;20154;-72
2024/01/12 01:19:39;;;;;;;86.03;37.28;;;-6.60;99.90;;;;;;5033263;28;20116;-72
2024/01/12 01:22:05;;;;;;;87.18;38.55;;;-6.60;99.90;;;;;;5030758;28;20465;-72
2024/01/12 01:24:31;;;;;;;92.65;40.22;;;-6.60;99.90;;;;;;5041088;28;20503;-72
2024/01/12 01:26:57;;;;;;;87.07;38.78;;;-6.70;99.90;;;;;;5035358;28;20018;-72
2024/01/12 01:29:24;;;;;;;97.53;39.63;;;-6.70;99.90;;;;;;5046801;28;20394;-72
2024/01/12 01:31:50;;;;;;;86.30;37.58;;;-6.60;99.90;;;;;;5049886;28;20021;-72
2024/01/12 01:34:16;;;;;;;97.20;40.33;;;-6.70;99.90;;;;;;5048347;28;20082;-73
2024/01/12 01:36:42;;;;;;;82.45;38.13;;;-6.70;99.90;;;;;;5049638;28;20021;-72
2024/01/12 01:39:08;;;;;;;88.50;37.50;;;-6.70;99.90;;;;;;5046738;28;20439;-72
2024/01/12 01:41:35;;;;;;;86.47;37.20;;;-6.70;99.90;;;;;;5036312;28;20021;-71
2024/01/12 01:44:01;;;;;;;90.60;39.03;;;-6.70;99.90;;;;;;5041097;28;20033;-71
2024/01/12 01:46:27;;;;;;;94.63;39.38;;;-6.70;99.90;;;;;;5046329;28;20034;-71
2024/01/12 01:48:53;;;;;;;91.20;39.03;;;-6.80;99.90;;;;;;5048809;28;20032;-71
2024/01/12 01:51:19;;;;;;;85.25;37.08;;;-6.80;99.90;;;;;;5048206;28;20107;-71
2024/01/12 01:53:45;;;;;;;91.53;41.00;;;-6.80;99.90;;;;;;5045519;28;20061;-71
2024/01/12 01:56:13;;;;;;;96.75;40.63;;;-6.80;99.90;;;;;;5046929;28;20028;-71
2024/01/12 01:58:41;;;;;;;102.43;39.90;;;-6.80;99.90;;;;;;5041500;28;20103;-71
2024/01/12 02:01:10;;;;;;;98.20;42.05;;;-6.70;99.90;;;;;;5045486;28;20079;-71
2024/01/12 02:03:38;;;;;;;97.67;42.33;;;-6.70;99.90;;;;;;5047616;28;20502;-72
2024/01/12 02:06:05;;;;;;;92.57;40.97;;;-6.60;99.90;;;;;;5047771;28;20039;-71
2024/01/12 02:08:31;;;;;;;89.28;40.80;;;-6.60;99.90;;;;;;5037497;28;20022;-71
2024/01/12 02:10:56;;;;;;;92.35;39.00;;;-6.60;99.90;;;;;;5045658;28;20040;-72
2024/01/12 02:13:22;;;;;;;90.97;39.97;;;-6.60;99.90;;;;;;5046745;28;20035;-74
2024/01/12 02:15:48;;;;;;;97.75;42.20;;;-6.70;99.90;;;;;;5047907;28;20477;-73
2024/01/12 02:18:14;;;;;;;84.13;36.70;;;-6.70;99.90;;;;;;5036552;28;20037;-73
2024/01/12 02:20:41;;;;;;;97.00;42.53;;;-6.70;99.90;;;;;;5049812;28;20045;-73
2024/01/12 02:23:07;;;;;;;98.13;41.28;;;-6.80;99.90;;;;;;5048282;28;20418;-73
2024/01/12 02:25:33;;;;;;;89.65;38.50;;;-6.80;99.90;;;;;;5047989;28;20036;-73
2024/01/12 02:27:59;;;;;;;93.57;40.85;;;-6.80;99.90;;;;;;5049113;28;20028;-73
2024/01/12 02:30:25;;;;;;;92.07;39.80;;;-6.80;99.90;;;;;;5043934;28;20691;-73
2024/01/12 02:32:51;;;;;;;86.85;39.03;;;-6.90;99.90;;;;;;5036908;28;20033;-72
2024/01/12 02:35:17;;;;;;;93.45;41.35;;;-6.90;99.90;;;;;;5042434;28;20112;-72
2024/01/12 02:37:42;;;;;;;95.13;39.08;;;-6.90;99.90;;;;;;5046955;28;20029;-72
2024/01/12 02:40:08;;;;;;;88.85;39.50;;;-7.00;99.90;;;;;;5044719;28;20033;-72
2024/01/12 02:42:34;;;;;;;96.60;39.97;;;-7.00;99.90;;;;;;5035348;28;20030;-72
2024/01/12 02:44:59;;;;;;;85.72;37.47;;;-7.00;99.90;;;;;;5041724;28;20037;-72
2024/01/12 02:47:25;;;;;;;88.63;40.08;;;-7.00;99.90;;;;;;5037793;28;20713;-72
2024/01/12 02:49:51;;;;;;;93.30;39.25;;;-6.90;99.90;;;;;;5044419;28;20025;-73
2024/01/12 02:52:16;;;;;;;83.18;36.22;;;-7.00;99.90;;;;;;5043198;28;20441;-73
2024/01/12 02:54:42;;;;;;;92.57;39.17;;;-7.00;99.90;;;;;;5042330;28;20381;-72
2024/01/12 02:57:09;;;;;;;98.43;40.90;;;-7.00;99.90;;;;;;5033105;28;20114;-72
2024/01/12 02:59:34;;;;;;;85.15;38.95;;;-7.00;99.90;;;;;;5047146;28;20511;-72
2024/01/12 03:02:01;;;;;;;99.50;40.88;;;-7.10;99.90;;;;;;5049057;28;20029;-72
2024/01/12 03:04:27;;;;;;;89.28;37.95;;;-7.10;99.90;;;;;;5039549;28;20270;-72
2024/01/12 03:06:52;;;;;;;101.50;42.50;;;-7.10;99.90;;;;;;5035925;28;20034;-72
2024/01/12 03:09:18;;;;;;;97.78;39.67;;;-7.10;99.90;;;;;;5027093;28;20060;-72
2024/01/12 03:11:43;;;;;;;102.28;42.55;;;-7.00;99.90;;;;;;5042228;28;20090;-72
2024/01/12 03:14:10;;;;;;;92.95;38.55;;;-7.00;99.90;;;;;;5032588;28;20033;-72
2024/01/12 03:16:36;;;;;;;91.30;38.97;;;-7.00;99.90;;;;;;5029585;28;20552;-72
2024/01/12 03:19:01;;;;;;;90.53;38.65;;;-7.00;99.90;;;;;;5046286;28;20037;-72
2024/01/12 03:21:27;;;;;;;90.15;38.38;;;-7.00;99.90;;;;;;5039207;28;20087;-72
2024/01/12 03:23:53;;;;;;;86.93;37.92;;;-7.00;99.90;;;;;;5032469;28;20119;-72
2024/01/12 03:26:18;;;;;;;87.10;37.70;;;-7.00;99.90;;;;;;5043257;28;20036;-72
2024/01/12 03:28:44;;;;;;;89.80;39.70;;;-7.00;99.90;;;;;;5044981;28;20532;-72
2024/01/12 03:31:10;;;;;;;87.80;40.10;;;-7.00;99.90;;;;;;5047431;28;20633;-72
2024/01/12 03:33:37;;;;;;;79.97;37.10;;;-7.10;99.90;;;;;;5033252;28;20025;-72
2024/01/12 03:36:06;;;;;;;87.90;36.65;;;-7.10;99.90;;;;;;5043141;28;20428;-72
2024/01/12 03:38:32;;;;;;;;;;;-7.20;99.90;;;;;;5019108;28;20026;-72
2024/01/12 03:40:58;;;;;;;87.25;38.30;;;-7.20;99.90;;;;;;5041502;28;19912;-72
2024/01/12 03:43:23;;;;;;;89.80;38.90;;;-7.20;99.90;;;;;;5045205;28;20567;-72
2024/01/12 03:45:49;;;;;;;91.60;39.05;;;-7.30;99.90;;;;;;5048156;28;20394;-72
2024/01/12 03:48:14;;;;;;;101.82;40.38;;;-7.20;99.90;;;;;;5031949;28;20151;-73
2024/01/12 03:50:40;;;;;;;91.03;40.40;;;-7.20;99.90;;;;;;5029623;28;20029;-72
2024/01/12 03:53:06;;;;;;;94.55;42.35;;;-7.20;99.90;;;;;;5042931;28;20083;-72
2024/01/12 03:55:31;;;;;;;97.88;42.63;;;-7.20;99.90;;;;;;5040345;28;20090;-71
2024/01/12 03:57:57;;;;;;;97.18;39.95;;;-7.20;99.90;;;;;;5031491;28;20026;-72
2024/01/12 04:00:23;;;;;;;103.82;40.95;;;-7.10;99.90;;;;;;5037268;28;20031;-72
2024/01/12 04:02:48;;;;;;;98.60;42.33;;;-7.10;99.90;;;;;;5047230;28;20490;-72
2024/01/12 04:05:14;;;;;;;92.45;40.40;;;-7.10;99.90;;;;;;5043423;28;20041;-72
2024/01/12 04:07:41;;;;;;;93.65;41.42;;;-7.10;99.90;;;;;;5033939;28;20021;-72
2024/01/12 04:10:07;;;;;;;99.47;40.15;;;-7.00;99.90;;;;;;5043792;28;20482;-72
2024/01/12 04:12:32;;;;;;;96.70;41.83;;;-7.00;99.90;;;;;;5045870;28;20032;-72
2024/01/12 04:14:58;;;;;;;100.30;41.55;;;-7.10;99.90;;;;;;5036306;28;20022;-72
2024/01/12 04:17:24;;;;;;;94.00;40.58;;;-7.00;99.90;;;;;;5044929;28;20393;-72
2024/01/12 04:19:49;;;;;;;93.25;40.47;;;-7.10;99.90;;;;;;5048117;28;20025;-72
2024/01/12 04:22:15;;;;;;;97.03;42.22;;;-7.10;99.90;;;;;;5032155;28;20106;-72
2024/01/12 04:24:41;;;;;;;96.03;40.42;;;-7.10;99.90;;;;;;5034990;28;20033;-72
2024/01/12 04:27:07;;;;;;;92.28;39.88;;;-7.20;99.90;;;;;;5046922;28;20021;-70
2024/01/12 04:29:34;;;;;;;93.57;41.50;;;-7.20;99.90;;;;;;5044760;28;20025;-71
2024/01/12 04:31:59;;;;;;;113.90;43.45;;;-7.20;99.90;;;;;;5048672;28;20100;-71
2024/01/12 04:34:25;;;;;;;92.88;40.20;;;-7.20;99.90;;;;;;5045116;28;20343;-74
2024/01/12 04:36:54;;;;;;;98.50;42.53;;;-7.30;99.90;;;;;;5049295;28;20032;-71
2024/01/12 04:39:19;;;;;;;102.80;43.80;;;-7.30;99.90;;;;;;5037656;28;20588;-72
2024/01/12 04:41:46;;;;;;;103.80;41.97;;;-7.40;99.90;;;;;;5050281;28;20017;-73
2024/01/12 04:44:13;;;;;;;102.95;42.63;;;-7.40;99.90;;;;;;5031856;28;20124;-72
2024/01/12 04:46:39;;;;;;;106.50;43.03;;;-7.50;99.90;;;;;;5021140;28;20116;-72
2024/01/12 04:49:05;;;;;;;106.15;44.45;;;-7.50;99.90;;;;;;5045477;28;20501;-72
2024/01/12 04:51:31;;;;;;;120.53;47.75;;;-7.50;99.90;;;;;;5045918;28;20053;-72
2024/01/12 04:53:57;;;;;;;120.43;47.95;;;-7.60;99.90;;;;;;5048933;28;20494;-72
2024/01/12 04:56:22;;;;;;;123.45;50.92;;;-7.50;99.90;;;;;;5040570;28;20040;-72
2024/01/12 04:58:48;;;;;;;118.95;51.25;;;-7.60;99.90;;;;;;5035913;28;20036;-72
2024/01/12 05:01:13;;;;;;;121.28;50.53;;;-7.60;99.90;;;;;;5042300;28;20060;-73
2024/01/12 05:03:42;;;;;;;129.02;51.53;;;-7.60;99.90;;;;;;5050729;28;20154;-72
2024/01/12 05:06:09;;;;;;;130.23;51.63;;;-7.70;99.90;;;;;;5044628;28;20032;-72
2024/01/12 05:08:36;;;;;;;116.80;48.45;;;-7.70;99.90;;;;;;5043062;28;20040;-72
2024/01/12 05:11:02;;;;;;;123.03;48.03;;;-7.80;99.90;;;;;;5041726;28;20044;-72
2024/01/12 05:13:28;;;;;;;120.55;47.67;;;-7.80;99.90;;;;;;5037700;28;20107;-72
2024/01/12 05:15:54;;;;;;;132.02;49.83;;;-7.80;99.90;;;;;;5037328;28;20108;-72
2024/01/12 05:18:22;;;;;;;135.82;52.05;;;;;;;;;;5042466;28;20508;-73
2024/01/12 05:20:48;;;;;;;123.82;50.55;;;;;;;;;;5045185;28;20056;-72
2024/01/12 05:23:14;;;;;;;121.78;50.05;;;;;;;;;;5048551;28;20025;-72
2024/01/12 05:25:40;;;;;;;121.65;49.80;;;;;;;;;;5037172;28;20028;-72
2024/01/12 05:28:06;;;;;;;109.78;45.75;;;;;;;;;;5042343;28;20096;-71
2024/01/12 05:30:32;;;;;;;111.47;44.63;;;;;;;;;;5047943;28;20113;-72
2024/01/12 05:32:58;;;;;;;115.90;45.22;;;;;;;;;;5050160;28;20025;-71
2024/01/12 05:35:24;;;;;;;113.78;44.80;;;;;;;;;;5047915;28;20025;-72
2024/01/12 05:37:51;;;;;;;115.15;45.78;;;;;;;;;;5041401;28;20028;-72
2024/01/12 05:40:18;;;;;;;111.03;45.42;;;;;;;;;;5031293;28;20084;-72
2024/01/12 05:42:45;;;;;;;108.80;46.60;;;;;;;;;;5043449;28;20068;-72
2024/01/12 05:45:11;;;;;;;112.68;45.17;;;;;;;;;;5048676;28;20111;-72
2024/01/12 05:47:37;;;;;;;106.35;44.95;;;;;;;;;;5047376;28;20047;-72
2024/01/12 05:50:09;;;;;;;102.38;43.58;;;;;;;;;;5050225;28;20474;-72
2024/01/12 05:52:35;;;;;;;102.53;42.92;;;;;;;;;;5049208;28;20040;-72
2024/01/12 05:55:02;;;;;;;111.00;46.47;;;;;;;;;;5039673;28;20253;-72
2024/01/12 05:57:28;;;;;;;100.00;42.67;;;;;;;;;;5034319;28;20557;-72
2024/01/12 05:59:55;;;;;;;115.45;44.95;;;;;;;;;;5037945;28;20032;-69
2024/01/12 06:02:21;;;;;;;102.30;45.05;;;;;;;;;;5043674;28;20559;-69
2024/01/12 06:04:47;;;;;;;107.97;42.95;;;;;;;;;;5040428;28;20024;-71
2024/01/12 06:07:14;;;;;;;112.40;44.60;;;;;;;;;;5033853;28;20486;-71
2024/01/12 06:09:41;;;;;;;96.80;42.20;;;;;;;;;;5049334;28;20100;-70
2024/01/12 06:12:07;;;;;;;116.47;46.78;;;;;;;;;;5047047;28;20097;-72
2024/01/12 06:14:33;;;;;;;112.50;46.53;;;;;;;;;;5032882;28;20045;-71
2024/01/12 06:16:59;;;;;;;107.80;44.50;;;;;;;;;;5044253;28;20041;-70
2024/01/12 06:19:25;;;;;;;114.78;44.90;;;;;;;;;;5031255;28;20818;-72
2024/01/12 06:21:51;;;;;;;108.00;44.67;;;;;;;;;;5039012;28;20529;-71
2024/01/12 06:24:17;;;;;;;110.68;43.50;;;;;;;;;;5009249;28;20517;-71
2024/01/12 06:26:44;;;;;;;119.88;46.33;;;;;;;;;;5042704;28;20033;-72
2024/01/12 06:29:10;;;;;;;109.53;46.75;;;;;;;;;;5042455;28;20025;-71
2024/01/12 06:31:36;;;;;;;104.75;43.58;;;;;;;;;;5030997;28;20079;-71
2024/01/12 06:34:02;;;;;;;115.13;45.88;;;;;;;;;;5037264;28;20483;-71
2024/01/12 06:36:28;;;;;;;120.95;46.97;;;;;;;;;;5040282;28;20406;-70
2024/01/12 06:38:54;;;;;;;108.25;46.80;;;;;;;;;;5038029;28;20124;-70
2024/01/12 06:41:20;;;;;;;120.07;47.35;;;;;;;;;;5015565;28;20113;-71
2024/01/12 06:43:46;;;;;;;123.55;49.70;;;;;;;;;;5015867;28;20038;-69
2024/01/12 06:46:12;;;;;;;125.25;49.95;;;;;;;;;;5017588;28;20461;-70
2024/01/12 06:48:38;;;;;;;132.93;50.90;;;;;;;;;;5030019;28;20018;-69
2024/01/12 06:51:05;;;;;;;127.20;51.05;;;;;;;;;;5027115;28;20470;-69
2024/01/12 06:53:31;;;;;;;123.85;49.50;;;;;;;;;;5026537;28;20030;-69
2024/01/12 06:55:57;;;;;;;130.90;52.70;;;;;;;;;;5016253;28;20076;-70
2024/01/12 06:58:23;;;;;;;128.75;52.85;;;;;;;;;;5026957;28;20033;-69
2024/01/12 07:00:49;;;;;;;132.32;52.60;;;;;;;;;;5030792;28;20072;-70
2024/01/12 07:03:16;;;;;;;134.05;52.00;;;;;;;;;;5023726;28;20048;-70
2024/01/12 07:05:42;;;;;;;123.72;51.85;;;;;;;;;;5023007;28;20075;-70
2024/01/12 07:08:09;;;;;;;115.15;48.40;;;;;;;;;;5028633;28;20056;-69
2024/01/12 07:10:35;;;;;;;116.45;48.58;;;;;;;;;;5029943;28;20025;-69
2024/01/12 07:13:01;;;;;;;119.38;50.28;;;;;;;;;;5013518;28;20105;-69
2024/01/12 07:15:27;;;;;;;125.32;52.38;;;;;;;;;;5013290;28;20491;-70
2024/01/12 07:17:54;;;;;;;116.32;48.40;;;;;;;;;;5024364;28;20024;-70
2024/01/12 07:20:21;;;;;;;121.45;49.13;;;;;;;;;;5020063;28;20414;-70
2024/01/12 07:22:47;;;;;;;113.10;46.42;;;;;;;;;;5035195;28;20186;-71
2024/01/12 07:25:13;;;;;;;120.10;48.55;;;;;;;;;;5039461;28;20028;-70
2024/01/12 07:27:39;;;;;;;118.47;48.58;;;;;;;;;;5042199;28;20025;-70
2024/01/12 07:30:07;;;;;;;115.10;47.83;;;;;;;;;;5044117;28;20030;-70
2024/01/12 07:32:35;;;;;;;114.85;49.78;;;;;;;;;;5028472;28;20033;-70
2024/01/12 07:35:01;;;;;;;120.03;48.63;;;;;;;;;;5040503;28;20033;-69
2024/01/12 07:37:27;;;;;;;122.22;50.60;;;;;;;;;;5038065;28;20248;-69
2024/01/12 07:39:53;;;;;;;121.57;49.22;;;;;;;;;;5040408;28;20479;-72
2024/01/12 07:42:19;;;;;;;122.88;51.95;;;;;;;;;;5042617;28;20116;-71
2024/01/12 07:44:47;;;;;;;116.55;48.00;;;;;;;;;;5043330;28;20452;-71
2024/01/12 07:47:13;;;;;;;110.88;47.58;;;;;;;;;;5033848;28;20021;-72
2024/01/12 07:49:39;;;;;;;119.85;47.38;;;;;;;;;;5040992;28;20393;-71
2024/01/12 07:52:06;;;;;;;112.22;48.42;;;;;;;;;;5045033;28;20036;-70
2024/01/12 07:54:32;;;;;;;115.28;47.22;;;;;;;;;;5039172;28;20525;-71
2024/01/12 07:56:58;;;;;;;112.63;46.65;;;;;;;;;;5043648;28;20537;-71
2024/01/12 07:59:24;;;;;;;116.32;48.17;;;;;;;;;;5042984;28;20104;-70
2024/01/12 08:01:53;;;;;;;114.60;48.80;;;;;;;;;;5035573;28;20467;-71
2024/01/12 08:04:20;;;;;;;117.75;50.17;;;;;;;;;;5042939;28;20021;-70
2024/01/12 08:06:47;;;;;;;115.25;48.97;;;;;;;;;;5036804;28;20080;-69
2024/01/12 08:09:14;;;;;;;132.82;50.95;;;;;;;;;;5039572;28;20018;-70
2024/01/12 08:11:40;;;;;;;116.57;51.45;;;;;;;;;;5046061;28;20025;-70
2024/01/12 08:14:07;;;;;;;117.00;50.75;;;;;;;;;;5041318;28;20047;-69
2024/01/12 08:16:33;;;;;;;127.60;52.85;;;;;;;;;;5052068;28;20536;-70
2024/01/12 08:19:00;;;;;;;125.18;51.05;;;;;;;;;;5050701;28;20409;-69
2024/01/12 08:21:26;;;;;;;128.43;51.72;;;;;;;;;;5052039;28;20204;-69
2024/01/12 08:23:52;;;;;;;131.20;53.95;;;;;;;;;;5049526;28;20040;-69
2024/01/12 08:26:19;;;;;;;120.93;52.13;;;;;;;;;;5046612;28;20375;-70
2024/01/12 08:28:45;;;;;;;114.93;50.05;;;;;;;;;;5047080;28;20040;-70
2024/01/12 08:31:18;;;;;;;111.68;48.67;;;-6.10;99.90;;;;;;5042170;28;20708;-70
2024/01/12 08:33:49;;;;;;;117.47;48.88;;;-6.30;99.90;;;;;;5025297;28;20072;-69
2024/01/12 08:36:15;;;;;;;105.60;45.75;;;-6.20;99.90;;;;;;5053332;28;20037;-70
2024/01/12 08:38:42;;;;;;;113.50;48.65;;;-6.20;99.90;;;;;;5040921;28;20049;-69
2024/01/12 08:41:08;;;;;;;110.93;48.97;;;-6.10;99.90;;;;;;5021277;28;20048;-70
2024/01/12 08:43:35;;;;;;;115.03;48.63;;;-6.00;99.90;;;;;;5052372;28;20035;-69
2024/01/12 08:46:01;;;;;;;117.82;49.30;;;-6.00;99.90;;;;;;5049982;28;20036;-72
2024/01/12 08:48:26;;;;;;;114.13;48.47;;;-6.10;99.90;;;;;;5041506;28;20037;-71
2024/01/12 08:50:52;;;;;;;119.40;51.28;;;-6.10;99.90;;;;;;5042736;28;20108;-70
2024/01/12 08:53:19;;;;;;;115.35;50.70;;;-6.10;99.90;;;;;;5032884;28;20045;-71
2024/01/12 08:55:45;;;;;;;116.10;48.80;;;-6.00;99.90;;;;;;5048732;28;20072;-70
2024/01/12 08:58:12;;;;;;;116.22;49.33;;;-6.00;99.90;;;;;;5047208;28;20034;-71
2024/01/12 09:00:45;;;;;;;113.05;50.92;;;-5.90;99.90;;;;;;5026735;28;20021;-71
2024/01/12 09:03:12;;;;;;;109.10;50.15;;;-5.80;99.90;;;;;;5045274;28;20060;-71
2024/01/12 09:05:38;;;;;;;113.53;49.78;;;-5.70;99.90;;;;;;5068075;28;20082;-69
2024/01/12 09:08:06;;;;;;;112.75;49.47;;;-5.70;99.90;;;;;;5031364;28;20379;-69
2024/01/12 09:10:32;;;;;;;106.78;48.35;;;-5.70;99.90;;;;;;5044032;28;20049;-70
2024/01/12 09:12:59;;;;;;;117.97;50.05;;;-5.60;99.90;;;;;;5045769;28;20040;-70
2024/01/12 09:15:24;;;;;;;109.93;47.58;;;-5.60;99.90;;;;;;5042525;28;20404;-70
2024/01/12 09:17:51;;;;;;;107.70;49.38;;;-5.60;99.90;;;;;;5053590;28;20120;-71
2024/01/12 09:20:18;;;;;;;116.50;49.72;;;-5.50;99.90;;;;;;5047963;28;20061;-70
2024/01/12 09:22:44;;;;;;;115.10;49.33;;;-5.50;99.90;;;;;;5033362;28;20087;-69
2024/01/12 09:25:11;;;;;;;112.75;49.40;;;-5.50;99.90;;;;;;5040070;28;20032;-70
2024/01/12 09:27:57;;;;;;;111.97;51.17;;;-5.40;99.90;;;;;;5049679;28;20057;-71
2024/01/12 09:30:30;;;;;;;113.47;48.83;;;-5.30;99.90;;;;;;5031336;28;20037;-70
2024/01/12 09:32:58;;;;;;;113.32;51.88;;;-5.20;99.90;;;;;;5045471;28;20509;-70
2024/01/12 09:35:25;;;;;;;113.00;49.88;;;-5.20;99.90;;;;;;5036676;28;20431;-71
2024/01/12 09:37:52;;;;;;;100.00;45.85;;;-5.00;99.90;;;;;;5047482;28;20493;-71
2024/01/12 09:40:18;;;;;;;110.32;48.08;;;-5.00;99.90;;;;;;5041636;28;20029;-69
2024/01/12 09:42:48;;;;;;;99.88;47.22;;;-4.90;99.90;;;;;;5033831;28;20084;-71
2024/01/12 09:45:16;;;;;;;107.05;46.83;;;-4.80;99.90;;;;;;5040182;28;20034;-70
2024/01/12 09:47:44;;;;;;;103.95;46.25;;;-4.70;99.90;;;;;;5044462;28;20112;-71
2024/01/12 09:50:10;;;;;;;93.95;44.88;;;-4.50;99.90;;;;;;5040417;28;20029;-71
2024/01/12 09:52:37;;;;;;;94.22;44.15;;;-4.40;99.90;;;;;;5039347;28;20036;-71
2024/01/12 09:55:06;;;;;;;101.32;45.90;;;-4.50;99.90;;;;;;5047947;28;20033;-71
2024/01/12 09:57:33;;;;;;;97.90;43.88;;;-4.40;99.90;;;;;;5040402;28;20048;-71
2024/01/12 10:00:01;;;;;;;99.43;46.28;;;-4.30;99.90;;;;;;5035173;28;20434;-70
2024/01/12 10:02:27;;;;;;;101.55;46.03;;;-4.20;99.90;;;;;;5039321;28;20056;-71
2024/01/12 10:04:53;;;;;;;93.47;46.10;;;-4.20;99.90;;;;;;5041027;28;20481;-72
2024/01/12 10:07:18;;;;;;;97.93;45.65;;;-4.20;99.90;;;;;;5046034;28;20021;-73
2024/01/12 10:09:44;;;;;;;95.72;47.00;;;-4.10;99.90;;;;;;5047380;28;20017;-73
2024/01/12 10:12:09;;;;;;;115.68;48.55;;;-4.10;99.90;;;;;;5040472;28;20017;-72
2024/01/12 10:14:35;;;;;;;96.43;45.17;;;-4.00;99.90;;;;;;5029477;28;20339;-72
2024/01/12 10:17:01;;;;;;;98.65;45.25;;;-4.00;99.90;;;;;;5039207;28;20067;-71
2024/01/12 10:19:28;;;;;;;94.07;45.65;;;-4.00;99.90;;;;;;5045179;28;20860;-72
2024/01/12 10:21:55;;;;;;;108.63;47.55;;;-3.90;99.90;;;;;;5037173;28;20497;-71
2024/01/12 10:24:21;;;;;;;101.68;47.53;;;-3.90;99.90;;;;;;5041891;28;20494;-72
2024/01/12 10:26:49;;;;;;;93.47;44.17;;;-3.90;99.90;;;;;;5048578;28;20103;-70
2024/01/12 10:29:15;;;;;;;91.85;46.22;;;-3.90;99.90;;;;;;5047429;28;20020;-72
2024/01/12 10:31:43;;;;;;;92.65;44.20;;;;;;;;;;5036650;28;20024;-71
2024/01/12 10:34:12;;;;;;;96.07;44.35;;;;;;;;;;5047381;28;20100;-71
2024/01/12 10:36:39;;;;;;;95.95;45.17;;;;;;;;;;5042775;28;20041;-72
2024/01/12 10:39:07;;;;;;;96.30;45.83;;;;;;;;;;5031485;28;20427;-71
2024/01/12 10:41:34;;;;;;;91.80;43.10;;;;;;;;;;5046209;28;20120;-71
2024/01/12 10:44:03;;;;;;;92.78;44.72;;;;;;;;;;5047827;28;20017;-71
2024/01/12 10:46:36;;;;;;;93.75;44.72;;;;;;;;;;5037418;28;20045;-71
2024/01/12 10:49:20;;;;;;;91.15;44.03;;;-3.00;99.90;;;;;;5042266;28;20367;-71
2024/01/12 10:52:12;;;;;;;92.55;45.95;;;-3.10;99.90;;;;;;5035041;28;20017;-71
2024/01/12 10:55:05;;;;;;;81.47;42.20;;;-3.00;99.90;;;;;;5041653;28;20136;-71
2024/01/12 10:57:32;;;;;;;94.20;43.03;;;-2.90;99.90;;;;;;5029836;28;20041;-71
2024/01/12 10:59:59;;;;;;;91.40;44.88;;;-2.90;99.90;;;;;;5048010;28;20032;-71
2024/01/12 11:02:25;;;;;;;89.72;43.28;;;-2.90;99.90;;;;;;5042308;28;20025;-71
2024/01/12 11:04:51;;;;;;;95.45;44.55;;;-2.90;99.90;;;;;;5043264;28;20164;-73
2024/01/12 11:07:18;;;;;;;88.90;41.97;;;-2.80;99.90;;;;;;5047091;28;20029;-73
2024/01/12 11:09:44;;;;;;;83.20;41.63;;;-2.80;99.90;;;;;;5039478;28;20019;-74
2024/01/12 11:12:16;;;;;;;86.07;41.25;;;-2.80;99.90;;;;;;5040164;28;20025;-71
2024/01/12 11:14:42;;;;;;;88.88;42.00;;;-2.80;99.90;;;;;;5040882;28;20029;-74
2024/01/12 11:17:12;;;;;;;102.00;43.90;;;-2.70;99.90;;;;;;5040462;28;20032;-73
2024/01/12 11:19:38;;;;;;;;;;;-2.70;99.90;;;;;;5045812;28;20053;-73
2024/01/12 11:22:07;;;;;;;82.32;39.15;;;-2.60;99.90;;;;;;5030757;28;20460;-73
2024/01/12 11:24:34;;;;;;;82.70;40.05;;;-2.60;99.90;;;;;;5036844;28;20120;-71
2024/01/12 11:27:00;;;;;;;80.13;38.45;;;-2.60;99.90;;;;;;5048697;28;20039;-72
2024/01/12 11:29:30;;;;;;;84.97;39.70;;;-2.60;99.90;;;;;;5046771;28;20013;-72
2024/01/12 11:32:03;;;;;;;80.88;37.22;;;-2.60;99.90;;;;;;5048880;28;20013;-71
2024/01/12 11:34:37;;;;;;;81.10;38.95;;;-2.50;99.90;;;;;;5032052;28;20131;-70
2024/01/12 11:37:07;;;;;;;81.55;37.83;;;-2.30;99.90;;;;;;5035525;28;20049;-72
2024/01/12 11:39:37;;;;;;;79.53;36.42;;;-2.30;99.90;;;;;;5043858;28;20017;-72
2024/01/12 11:42:05;;;;;;;82.65;39.35;;;-2.20;99.90;;;;;;5045690;28;20029;-72
2024/01/12 11:44:33;;;;;;;81.50;38.35;;;-2.20;99.90;;;;;;5044972;28;20067;-72
2024/01/12 11:47:00;;;;;;;78.25;37.95;;;-2.20;99.90;;;;;;5045770;28;20108;-74
2024/01/12 11:49:26;;;;;;;76.13;36.65;;;-2.10;99.90;;;;;;5045330;28;20021;-78
2024/01/12 11:52:07;;;;;;;70.15;35.78;;;-2.10;99.90;;;;;;5039383;28;20052;-75
2024/01/12 11:54:32;;;;;;;72.30;36.70;;;-2.10;99.90;;;;;;5007255;28;20099;-77
2024/01/12 11:56:58;;;;;;;71.03;36.13;;;-2.00;99.90;;;;;;5023263;28;20041;-77
2024/01/12 11:59:24;;;;;;;76.55;34.80;;;-1.90;99.90;;;;;;5024426;28;20060;-73
2024/01/12 12:01:49;;;;;;;77.65;37.45;;;-1.80;99.90;;;;;;5020905;28;20030;-76
2024/01/12 12:04:17;;;;;;;71.55;37.42;;;-1.90;99.90;;;;;;5015501;28;20101;-74
2024/01/12 12:06:45;;;;;;;75.75;36.88;;;-1.90;99.90;;;;;;5024285;28;20033;-73
2024/01/12 12:09:10;;;;;;;75.65;36.38;;;-1.80;99.90;;;;;;5024057;28;20091;-72
2024/01/12 12:11:36;;;;;;;69.63;35.25;;;-1.70;99.90;;;;;;5025594;28;20029;-73
2024/01/12 12:14:04;;;;;;;67.47;34.72;;;-1.70;99.90;;;;;;5004060;28;20453;-73
2024/01/12 12:16:30;;;;;;;76.72;35.90;;;-1.70;99.90;;;;;;4997022;28;20457;-74
2024/01/12 12:18:55;;;;;;;66.57;34.80;;;-1.60;99.90;;;;;;5020259;28;20383;-74
2024/01/12 12:21:22;;;;;;;71.88;35.22;;;-1.60;99.90;;;;;;5023838;28;20144;-74
2024/01/12 12:23:48;;;;;;;70.10;35.08;;;-1.60;99.90;;;;;;5023743;28;20111;-72
2024/01/12 12:26:13;;;;;;;68.13;35.15;;;-1.70;99.90;;;;;;5023408;28;20030;-71
2024/01/12 12:28:39;;;;;;;69.97;35.30;;;-1.70;99.90;;;;;;5001724;28;20026;-74
2024/01/12 12:31:10;;;;;;;65.32;33.72;;;-1.60;99.90;;;;;;4995003;28;20041;-74
2024/01/12 12:33:36;;;;;;;69.50;34.13;;;-1.60;99.90;;;;;;5034886;28;20021;-73
2024/01/12 12:36:06;;;;;;;60.97;32.38;;;-1.50;99.90;;;;;;5048473;28;20036;-73
2024/01/12 12:38:32;;;;;;;73.78;34.38;;;-1.40;99.90;;;;;;5045603;28;20124;-73
2024/01/12 12:40:58;;;;;;;74.38;35.42;;;-1.40;99.90;;;;;;5058447;28;20025;-73
2024/01/12 12:43:25;;;;;;;61.22;33.08;;;-1.40;99.90;;;;;;5044341;28;20044;-74
2024/01/12 12:45:52;;;;;;;68.63;34.90;;;-1.40;99.90;;;;;;5033118;28;20029;-75
2024/01/12 12:48:17;;;;;;;66.88;34.42;;;-1.40;99.90;;;;;;5033824;28;20155;-74